sensor_id;sensor_type;location;lat;lon;timestamp;pressure;altitude;pressure_sealevel;temperature;humidity
46682;BME280;34101;53.430;-2.224;2023-05-11T00:00:11;100885.23;;;13.20;78.02
46682;BME280;34101;53.430;-2.224;2023-05-11T00:02:39;100884.32;;;13.24;78.05
46682;BME280;34101;53.430;-2.224;2023-05-11T00:05:07;100884.23;;;13.26;77.96
46682;BME280;34101;53.430;-2.224;2023-05-11T00:07:35;100885.32;;;13.26;77.80
46682;BME280;34101;53.430;-2.224;2023-05-11T00:10:02;100883.79;;;13.26;77.95
46682;BME280;34101;53.430;-2.224;2023-05-11T00:12:30;100882.19;;;13.27;77.91
46682;BME280;34101;53.430;-2.224;2023-05-11T00:14:57;100884.11;;;13.32;77.90
46682;BME280;34101;53.430;-2.224;2023-05-11T00:17:24;100885.46;;;13.36;77.69
46682;BME280;34101;53.430;-2.224;2023-05-11T00:19:52;100884.37;;;13.34;77.76
46682;BME280;34101;53.430;-2.224;2023-05-11T00:22:19;100885.18;;;13.36;77.76
46682;BME280;34101;53.430;-2.224;2023-05-11T00:24:47;100886.64;;;13.41;77.73
46682;BME280;34101;53.430;-2.224;2023-05-11T00:27:14;100889.84;;;13.44;77.59
46682;BME280;34101;53.430;-2.224;2023-05-11T00:29:42;100886.35;;;13.44;77.48
46682;BME280;34101;53.430;-2.224;2023-05-11T00:32:09;100885.50;;;13.41;77.18
46682;BME280;34101;53.430;-2.224;2023-05-11T00:34:36;100886.52;;;13.37;77.27
46682;BME280;34101;53.430;-2.224;2023-05-11T00:37:04;100887.95;;;13.36;77.26
46682;BME280;34101;53.430;-2.224;2023-05-11T00:39:36;100883.92;;;13.32;76.75
46682;BME280;34101;53.430;-2.224;2023-05-11T00:42:04;100885.03;;;13.27;77.40
46682;BME280;34101;53.430;-2.224;2023-05-11T00:44:31;100886.79;;;13.28;77.23
46682;BME280;34101;53.430;-2.224;2023-05-11T00:46:59;100884.43;;;13.28;77.28
46682;BME280;34101;53.430;-2.224;2023-05-11T00:49:26;100885.40;;;13.25;77.32
46682;BME280;34101;53.430;-2.224;2023-05-11T00:51:54;100882.96;;;13.26;77.25
46682;BME280;34101;53.430;-2.224;2023-05-11T00:54:21;100886.71;;;13.29;77.11
46682;BME280;34101;53.430;-2.224;2023-05-11T00:56:48;100886.94;;;13.33;77.35
46682;BME280;34101;53.430;-2.224;2023-05-11T00:59:16;100887.15;;;13.33;77.13
46682;BME280;34101;53.430;-2.224;2023-05-11T01:01:43;100887.80;;;13.35;77.25
46682;BME280;34101;53.430;-2.224;2023-05-11T01:04:10;100890.83;;;13.40;77.23
46682;BME280;34101;53.430;-2.224;2023-05-11T01:06:46;100893.01;;;13.44;76.94
46682;BME280;34101;53.430;-2.224;2023-05-11T01:09:26;100895.64;;;13.43;77.20
46682;BME280;34101;53.430;-2.224;2023-05-11T01:12:11;100897.56;;;13.44;77.03
46682;BME280;34101;53.430;-2.224;2023-05-11T01:14:44;100897.00;;;13.32;77.05
46682;BME280;34101;53.430;-2.224;2023-05-11T01:17:19;100898.52;;;13.29;77.16
46682;BME280;34101;53.430;-2.224;2023-05-11T01:19:56;100900.47;;;13.29;77.07
46682;BME280;34101;53.430;-2.224;2023-05-11T01:22:49;100901.74;;;13.23;77.41
46682;BME280;34101;53.430;-2.224;2023-05-11T01:25:37;100903.19;;;13.24;77.37
46682;BME280;34101;53.430;-2.224;2023-05-11T01:28:19;100902.62;;;13.23;77.05
46682;BME280;34101;53.430;-2.224;2023-05-11T01:30:50;100901.11;;;13.22;77.48
46682;BME280;34101;53.430;-2.224;2023-05-11T01:33:25;100900.52;;;13.26;77.45
46682;BME280;34101;53.430;-2.224;2023-05-11T01:35:57;100900.13;;;13.29;77.41
46682;BME280;34101;53.430;-2.224;2023-05-11T01:38:27;100902.66;;;13.32;77.25
46682;BME280;34101;53.430;-2.224;2023-05-11T01:40:59;100902.69;;;13.20;77.65
46682;BME280;34101;53.430;-2.224;2023-05-11T01:43:29;100904.87;;;13.21;77.65
46682;BME280;34101;53.430;-2.224;2023-05-11T01:46:02;100907.61;;;13.23;77.66
46682;BME280;34101;53.430;-2.224;2023-05-11T01:48:41;100906.89;;;13.17;76.71
46682;BME280;34101;53.430;-2.224;2023-05-11T01:51:10;100907.02;;;13.13;77.54
46682;BME280;34101;53.430;-2.224;2023-05-11T01:53:38;100908.03;;;13.13;77.57
46682;BME280;34101;53.430;-2.224;2023-05-11T01:56:06;100908.46;;;13.14;77.60
46682;BME280;34101;53.430;-2.224;2023-05-11T01:58:36;100909.09;;;13.06;77.54
46682;BME280;34101;53.430;-2.224;2023-05-11T02:01:05;100914.09;;;13.10;77.96
46682;BME280;34101;53.430;-2.224;2023-05-11T02:03:35;100913.77;;;13.19;77.41
46682;BME280;34101;53.430;-2.224;2023-05-11T02:06:04;100917.28;;;13.15;77.81
46682;BME280;34101;53.430;-2.224;2023-05-11T02:08:32;100917.29;;;13.18;77.77
46682;BME280;34101;53.430;-2.224;2023-05-11T02:11:06;100916.61;;;13.21;76.97
46682;BME280;34101;53.430;-2.224;2023-05-11T02:13:35;100917.68;;;13.16;77.67
46682;BME280;34101;53.430;-2.224;2023-05-11T02:16:05;100921.82;;;13.17;77.70
46682;BME280;34101;53.430;-2.224;2023-05-11T02:18:35;100925.88;;;13.17;77.67
46682;BME280;34101;53.430;-2.224;2023-05-11T02:21:10;100928.20;;;13.19;77.80
46682;BME280;34101;53.430;-2.224;2023-05-11T02:23:38;100929.06;;;13.19;77.75
46682;BME280;34101;53.430;-2.224;2023-05-11T02:26:07;100927.19;;;13.19;77.71
46682;BME280;34101;53.430;-2.224;2023-05-11T02:28:34;100930.36;;;13.19;77.83
46682;BME280;34101;53.430;-2.224;2023-05-11T02:31:06;100931.23;;;13.21;77.85
46682;BME280;34101;53.430;-2.224;2023-05-11T02:33:40;100934.42;;;13.21;77.77
46682;BME280;34101;53.430;-2.224;2023-05-11T02:36:14;100935.22;;;13.19;77.87
46682;BME280;34101;53.430;-2.224;2023-05-11T02:38:45;100939.04;;;13.20;77.85
46682;BME280;34101;53.430;-2.224;2023-05-11T02:41:16;100940.08;;;13.21;77.82
46682;BME280;34101;53.430;-2.224;2023-05-11T02:43:49;100942.97;;;13.26;77.91
46682;BME280;34101;53.430;-2.224;2023-05-11T02:46:20;100945.38;;;13.32;77.66
46682;BME280;34101;53.430;-2.224;2023-05-11T02:48:54;100947.23;;;13.37;77.26
46682;BME280;34101;53.430;-2.224;2023-05-11T02:51:29;100945.96;;;13.33;76.63
46682;BME280;34101;53.430;-2.224;2023-05-11T02:53:58;100946.90;;;13.29;77.25
46682;BME280;34101;53.430;-2.224;2023-05-11T02:56:27;100949.83;;;13.30;77.07
46682;BME280;34101;53.430;-2.224;2023-05-11T02:58:55;100949.36;;;13.27;77.23
46682;BME280;34101;53.430;-2.224;2023-05-11T03:01:24;100950.17;;;13.30;77.23
46682;BME280;34101;53.430;-2.224;2023-05-11T03:03:52;100947.72;;;13.33;76.97
46682;BME280;34101;53.430;-2.224;2023-05-11T03:06:20;100947.68;;;13.31;77.19
46682;BME280;34101;53.430;-2.224;2023-05-11T03:08:47;100945.98;;;13.33;76.94
46682;BME280;34101;53.430;-2.224;2023-05-11T03:11:15;100945.07;;;13.34;76.59
46682;BME280;34101;53.430;-2.224;2023-05-11T03:13:43;100944.05;;;13.32;76.91
46682;BME280;34101;53.430;-2.224;2023-05-11T03:16:12;100943.59;;;13.27;77.01
46682;BME280;34101;53.430;-2.224;2023-05-11T03:18:41;100942.04;;;13.29;77.12
46682;BME280;34101;53.430;-2.224;2023-05-11T03:21:15;100942.49;;;13.33;77.02
46682;BME280;34101;53.430;-2.224;2023-05-11T03:23:44;100942.18;;;13.34;77.16
46682;BME280;34101;53.430;-2.224;2023-05-11T03:26:13;100946.19;;;13.37;77.20
46682;BME280;34101;53.430;-2.224;2023-05-11T03:28:43;100944.98;;;13.39;77.10
46682;BME280;34101;53.430;-2.224;2023-05-11T03:31:11;100948.02;;;13.39;76.99
46682;BME280;34101;53.430;-2.224;2023-05-11T03:33:38;100948.09;;;13.36;76.98
46682;BME280;34101;53.430;-2.224;2023-05-11T03:36:09;100947.94;;;13.39;77.07
46682;BME280;34101;53.430;-2.224;2023-05-11T03:38:38;100951.13;;;13.39;76.92
46682;BME280;34101;53.430;-2.224;2023-05-11T03:41:05;100947.06;;;13.38;76.91
46682;BME280;34101;53.430;-2.224;2023-05-11T03:43:34;100947.74;;;13.40;76.99
46682;BME280;34101;53.430;-2.224;2023-05-11T03:46:02;100945.93;;;13.40;76.87
46682;BME280;34101;53.430;-2.224;2023-05-11T03:48:30;100947.20;;;13.43;76.79
46682;BME280;34101;53.430;-2.224;2023-05-11T03:50:57;100945.69;;;13.42;76.80
46682;BME280;34101;53.430;-2.224;2023-05-11T03:53:25;100947.23;;;13.49;76.15
46682;BME280;34101;53.430;-2.224;2023-05-11T03:55:53;100944.93;;;13.43;75.71
46682;BME280;34101;53.430;-2.224;2023-05-11T03:58:21;100946.88;;;13.38;76.66
46682;BME280;34101;53.430;-2.224;2023-05-11T04:00:49;100948.00;;;13.36;76.98
46682;BME280;34101;53.430;-2.224;2023-05-11T04:03:16;100950.69;;;13.33;77.10
46682;BME280;34101;53.430;-2.224;2023-05-11T04:05:44;100952.56;;;13.40;77.06
46682;BME280;34101;53.430;-2.224;2023-05-11T04:08:11;100951.37;;;13.44;76.96
46682;BME280;34101;53.430;-2.224;2023-05-11T04:10:38;100951.77;;;13.37;76.76
46682;BME280;34101;53.430;-2.224;2023-05-11T04:13:06;100952.48;;;13.35;77.22
46682;BME280;34101;53.430;-2.224;2023-05-11T04:15:33;100954.31;;;13.42;76.48
46682;BME280;34101;53.430;-2.224;2023-05-11T04:18:00;100951.77;;;13.44;76.44
46682;BME280;34101;53.430;-2.224;2023-05-11T04:20:28;100953.18;;;13.44;76.79
46682;BME280;34101;53.430;-2.224;2023-05-11T04:23:00;100953.10;;;13.49;77.09
46682;BME280;34101;53.430;-2.224;2023-05-11T04:25:28;100956.14;;;13.55;77.09
46682;BME280;34101;53.430;-2.224;2023-05-11T04:27:55;100957.90;;;13.59;77.00
46682;BME280;34101;53.430;-2.224;2023-05-11T04:30:28;100958.05;;;13.61;76.90
46682;BME280;34101;53.430;-2.224;2023-05-11T04:32:55;100957.80;;;13.63;76.76
46682;BME280;34101;53.430;-2.224;2023-05-11T04:35:23;100960.17;;;13.64;76.70
46682;BME280;34101;53.430;-2.224;2023-05-11T04:37:50;100964.60;;;13.67;76.77
46682;BME280;34101;53.430;-2.224;2023-05-11T04:40:18;100961.50;;;13.70;76.61
46682;BME280;34101;53.430;-2.224;2023-05-11T04:42:46;100962.87;;;13.72;76.68
46682;BME280;34101;53.430;-2.224;2023-05-11T04:45:13;100964.22;;;13.76;76.44
46682;BME280;34101;53.430;-2.224;2023-05-11T04:47:40;100965.68;;;13.80;76.49
46682;BME280;34101;53.430;-2.224;2023-05-11T04:50:08;100966.92;;;13.77;76.29
46682;BME280;34101;53.430;-2.224;2023-05-11T04:52:36;100968.70;;;13.77;76.41
46682;BME280;34101;53.430;-2.224;2023-05-11T04:55:04;100970.73;;;13.79;76.48
46682;BME280;34101;53.430;-2.224;2023-05-11T04:57:32;100974.00;;;13.82;76.49
46682;BME280;34101;53.430;-2.224;2023-05-11T04:59:59;100975.87;;;13.83;76.48
46682;BME280;34101;53.430;-2.224;2023-05-11T05:02:26;100977.84;;;13.86;76.43
46682;BME280;34101;53.430;-2.224;2023-05-11T05:04:54;100980.03;;;13.85;76.09
46682;BME280;34101;53.430;-2.224;2023-05-11T05:07:21;100983.84;;;13.80;76.19
46682;BME280;34101;53.430;-2.224;2023-05-11T05:09:49;100990.82;;;13.82;76.41
46682;BME280;34101;53.430;-2.224;2023-05-11T05:12:16;100994.05;;;13.73;75.90
46682;BME280;34101;53.430;-2.224;2023-05-11T05:14:44;100993.60;;;13.70;76.28
46682;BME280;34101;53.430;-2.224;2023-05-11T05:17:16;100998.13;;;13.67;76.83
46682;BME280;34101;53.430;-2.224;2023-05-11T05:19:43;101001.57;;;13.66;76.99
46682;BME280;34101;53.430;-2.224;2023-05-11T05:22:10;101000.95;;;13.61;77.12
46682;BME280;34101;53.430;-2.224;2023-05-11T05:24:38;101004.72;;;13.58;77.37
46682;BME280;34101;53.430;-2.224;2023-05-11T05:27:05;101005.94;;;13.54;77.28
46682;BME280;34101;53.430;-2.224;2023-05-11T05:29:33;101010.32;;;13.51;77.71
46682;BME280;34101;53.430;-2.224;2023-05-11T05:32:00;101014.53;;;13.37;78.35
46682;BME280;34101;53.430;-2.224;2023-05-11T05:34:32;101015.92;;;13.42;78.47
46682;BME280;34101;53.430;-2.224;2023-05-11T05:37:00;101016.03;;;13.41;78.18
46682;BME280;34101;53.430;-2.224;2023-05-11T05:39:28;101018.57;;;13.38;78.65
46682;BME280;34101;53.430;-2.224;2023-05-11T05:41:55;101019.52;;;13.38;78.39
46682;BME280;34101;53.430;-2.224;2023-05-11T05:44:22;101020.75;;;13.33;78.85
46682;BME280;34101;53.430;-2.224;2023-05-11T05:46:50;101023.35;;;13.35;78.93
46682;BME280;34101;53.430;-2.224;2023-05-11T05:49:17;101026.27;;;13.38;79.04
46682;BME280;34101;53.430;-2.224;2023-05-11T05:51:45;101027.55;;;13.21;78.81
46682;BME280;34101;53.430;-2.224;2023-05-11T05:54:12;101029.91;;;13.21;79.65
46682;BME280;34101;53.430;-2.224;2023-05-11T05:56:39;101031.27;;;13.23;80.05
46682;BME280;34101;53.430;-2.224;2023-05-11T05:59:07;101030.31;;;13.27;80.26
46682;BME280;34101;53.430;-2.224;2023-05-11T06:01:34;101033.59;;;13.27;80.03
46682;BME280;34101;53.430;-2.224;2023-05-11T06:04:02;101035.44;;;13.26;80.09
46682;BME280;34101;53.430;-2.224;2023-05-11T06:06:30;101038.09;;;13.27;80.12
46682;BME280;34101;53.430;-2.224;2023-05-11T06:08:57;101039.98;;;13.19;79.83
46682;BME280;34101;53.430;-2.224;2023-05-11T06:11:24;101042.62;;;13.17;79.72
46682;BME280;34101;53.430;-2.224;2023-05-11T06:13:52;101045.12;;;13.20;79.95
46682;BME280;34101;53.430;-2.224;2023-05-11T06:16:19;101048.89;;;13.24;79.72
46682;BME280;34101;53.430;-2.224;2023-05-11T06:18:46;101049.25;;;13.25;80.04
46682;BME280;34101;53.430;-2.224;2023-05-11T06:21:14;101053.51;;;13.28;79.75
46682;BME280;34101;53.430;-2.224;2023-05-11T06:23:41;101057.43;;;13.29;79.20
46682;BME280;34101;53.430;-2.224;2023-05-11T06:26:08;101061.65;;;13.35;79.64
46682;BME280;34101;53.430;-2.224;2023-05-11T06:28:36;101062.12;;;13.32;79.65
46682;BME280;34101;53.430;-2.224;2023-05-11T06:31:03;101064.98;;;13.42;79.69
46682;BME280;34101;53.430;-2.224;2023-05-11T06:33:31;101062.45;;;13.47;79.27
46682;BME280;34101;53.430;-2.224;2023-05-11T06:35:58;101065.53;;;13.48;79.46
46682;BME280;34101;53.430;-2.224;2023-05-11T06:38:29;101070.53;;;13.47;79.35
46682;BME280;34101;53.430;-2.224;2023-05-11T06:40:56;101068.13;;;13.49;79.22
46682;BME280;34101;53.430;-2.224;2023-05-11T06:43:24;101070.07;;;13.46;79.24
46682;BME280;34101;53.430;-2.224;2023-05-11T06:45:52;101072.27;;;13.52;79.43
46682;BME280;34101;53.430;-2.224;2023-05-11T06:48:19;101075.42;;;13.54;79.04
46682;BME280;34101;53.430;-2.224;2023-05-11T06:50:47;101076.08;;;13.61;79.35
46682;BME280;34101;53.430;-2.224;2023-05-11T06:53:14;101077.12;;;13.66;78.67
46682;BME280;34101;53.430;-2.224;2023-05-11T06:55:41;101077.66;;;13.58;79.00
46682;BME280;34101;53.430;-2.224;2023-05-11T06:58:09;101082.51;;;13.59;79.22
46682;BME280;34101;53.430;-2.224;2023-05-11T07:00:36;101084.57;;;13.63;79.42
46682;BME280;34101;53.430;-2.224;2023-05-11T07:03:04;101087.22;;;13.53;79.35
46682;BME280;34101;53.430;-2.224;2023-05-11T07:05:32;101086.26;;;13.26;80.03
46682;BME280;34101;53.430;-2.224;2023-05-11T07:08:00;101086.18;;;13.30;80.42
46682;BME280;34101;53.430;-2.224;2023-05-11T07:10:27;101087.92;;;13.36;80.70
46682;BME280;34101;53.430;-2.224;2023-05-11T07:12:54;101089.33;;;13.46;80.59
46682;BME280;34101;53.430;-2.224;2023-05-11T07:15:21;101087.96;;;13.44;80.04
46682;BME280;34101;53.430;-2.224;2023-05-11T07:17:49;101087.98;;;13.54;80.04
46682;BME280;34101;53.430;-2.224;2023-05-11T07:20:16;101087.75;;;13.58;80.18
46682;BME280;34101;53.430;-2.224;2023-05-11T07:22:44;101090.12;;;13.62;79.92
46682;BME280;34101;53.430;-2.224;2023-05-11T07:25:11;101090.45;;;13.65;79.98
46682;BME280;34101;53.430;-2.224;2023-05-11T07:27:39;101089.05;;;13.71;79.66
46682;BME280;34101;53.430;-2.224;2023-05-11T07:30:07;101091.04;;;13.69;79.26
46682;BME280;34101;53.430;-2.224;2023-05-11T07:32:34;101090.02;;;13.75;79.54
46682;BME280;34101;53.430;-2.224;2023-05-11T07:35:02;101091.46;;;13.87;80.20
46682;BME280;34101;53.430;-2.224;2023-05-11T07:37:34;101093.15;;;13.86;79.01
46682;BME280;34101;53.430;-2.224;2023-05-11T07:40:03;101093.72;;;13.91;79.82
46682;BME280;34101;53.430;-2.224;2023-05-11T07:42:30;101090.16;;;14.09;79.54
46682;BME280;34101;53.430;-2.224;2023-05-11T07:44:58;101090.90;;;14.04;78.82
46682;BME280;34101;53.430;-2.224;2023-05-11T07:47:25;101092.84;;;14.07;78.79
46682;BME280;34101;53.430;-2.224;2023-05-11T07:49:53;101093.21;;;14.14;79.53
46682;BME280;34101;53.430;-2.224;2023-05-11T07:52:20;101095.42;;;14.34;78.93
46682;BME280;34101;53.430;-2.224;2023-05-11T07:54:47;101095.43;;;14.53;78.59
46682;BME280;34101;53.430;-2.224;2023-05-11T07:57:14;101097.65;;;14.76;77.94
46682;BME280;34101;53.430;-2.224;2023-05-11T07:59:42;101100.52;;;14.95;77.02
46682;BME280;34101;53.430;-2.224;2023-05-11T08:02:09;101096.93;;;15.10;76.39
46682;BME280;34101;53.430;-2.224;2023-05-11T08:04:37;101101.01;;;15.07;75.34
46682;BME280;34101;53.430;-2.224;2023-05-11T08:07:04;101100.73;;;15.15;74.80
46682;BME280;34101;53.430;-2.224;2023-05-11T08:09:32;101100.96;;;15.13;74.12
46682;BME280;34101;53.430;-2.224;2023-05-11T08:11:59;101103.09;;;15.20;73.81
46682;BME280;34101;53.430;-2.224;2023-05-11T08:14:27;101104.72;;;15.22;74.25
46682;BME280;34101;53.430;-2.224;2023-05-11T08:16:54;101110.01;;;15.34;74.32
46682;BME280;34101;53.430;-2.224;2023-05-11T08:19:22;101112.60;;;15.36;73.70
46682;BME280;34101;53.430;-2.224;2023-05-11T08:21:49;101111.42;;;15.28;73.38
46682;BME280;34101;53.430;-2.224;2023-05-11T08:24:17;101112.69;;;15.25;72.87
46682;BME280;34101;53.430;-2.224;2023-05-11T08:26:44;101113.88;;;15.34;73.98
46682;BME280;34101;53.430;-2.224;2023-05-11T08:29:11;101113.55;;;15.54;72.93
46682;BME280;34101;53.430;-2.224;2023-05-11T08:31:39;101115.00;;;15.64;73.01
46682;BME280;34101;53.430;-2.224;2023-05-11T08:34:06;101114.58;;;15.86;72.06
46682;BME280;34101;53.430;-2.224;2023-05-11T08:36:33;101116.18;;;15.76;71.61
46682;BME280;34101;53.430;-2.224;2023-05-11T08:39:00;101117.04;;;15.92;71.49
46682;BME280;34101;53.430;-2.224;2023-05-11T08:41:28;101116.59;;;15.93;70.71
46682;BME280;34101;53.430;-2.224;2023-05-11T08:43:56;101116.65;;;16.15;70.48
46682;BME280;34101;53.430;-2.224;2023-05-11T08:46:29;101116.46;;;16.15;69.82
46682;BME280;34101;53.430;-2.224;2023-05-11T08:48:57;101115.04;;;16.30;70.30
46682;BME280;34101;53.430;-2.224;2023-05-11T08:51:24;101116.61;;;16.52;70.14
46682;BME280;34101;53.430;-2.224;2023-05-11T08:53:53;101114.59;;;16.48;68.80
46682;BME280;34101;53.430;-2.224;2023-05-11T08:56:20;101117.20;;;16.42;68.92
46682;BME280;34101;53.430;-2.224;2023-05-11T08:58:48;101118.01;;;16.80;69.22
46682;BME280;34101;53.430;-2.224;2023-05-11T09:01:17;101118.96;;;17.14;67.77
46682;BME280;34101;53.430;-2.224;2023-05-11T09:03:45;101121.01;;;17.37;66.63
46682;BME280;34101;53.430;-2.224;2023-05-11T09:06:19;101123.93;;;17.63;65.20
46682;BME280;34101;53.430;-2.224;2023-05-11T09:08:46;101124.25;;;17.83;63.49
46682;BME280;34101;53.430;-2.224;2023-05-11T09:11:14;101122.35;;;18.03;64.38
46682;BME280;34101;53.430;-2.224;2023-05-11T09:13:42;101127.60;;;18.36;63.50
46682;BME280;34101;53.430;-2.224;2023-05-11T09:16:09;101125.78;;;18.31;61.77
46682;BME280;34101;53.430;-2.224;2023-05-11T09:18:46;101123.15;;;18.05;62.32
46682;BME280;34101;53.430;-2.224;2023-05-11T09:21:13;101129.10;;;18.43;61.11
46682;BME280;34101;53.430;-2.224;2023-05-11T09:23:40;101127.33;;;18.42;62.08
46682;BME280;34101;53.430;-2.224;2023-05-11T09:26:13;101126.48;;;18.77;59.62
46682;BME280;34101;53.430;-2.224;2023-05-11T09:28:47;101124.26;;;18.93;58.89
46682;BME280;34101;53.430;-2.224;2023-05-11T09:31:35;101122.41;;;19.05;57.46
46682;BME280;34101;53.430;-2.224;2023-05-11T09:34:19;101125.44;;;19.31;58.02
46682;BME280;34101;53.430;-2.224;2023-05-11T09:36:48;101126.31;;;19.25;58.96
46682;BME280;34101;53.430;-2.224;2023-05-11T09:39:16;101129.74;;;19.22;59.12
46682;BME280;34101;53.430;-2.224;2023-05-11T09:41:44;101127.30;;;19.37;57.31
46682;BME280;34101;53.430;-2.224;2023-05-11T09:44:13;101128.12;;;19.30;57.76
46682;BME280;34101;53.430;-2.224;2023-05-11T09:46:42;101130.96;;;19.34;56.95
46682;BME280;34101;53.430;-2.224;2023-05-11T09:49:10;101132.15;;;19.01;58.61
46682;BME280;34101;53.430;-2.224;2023-05-11T09:51:39;101132.29;;;18.77;58.16
46682;BME280;34101;53.430;-2.224;2023-05-11T09:54:22;101131.40;;;18.73;58.62
46682;BME280;34101;53.430;-2.224;2023-05-11T09:56:51;101131.24;;;18.64;58.64
46682;BME280;34101;53.430;-2.224;2023-05-11T09:59:38;101131.36;;;18.54;59.23
46682;BME280;34101;53.430;-2.224;2023-05-11T10:02:22;101132.00;;;18.25;59.17
46682;BME280;34101;53.430;-2.224;2023-05-11T10:04:51;101129.01;;;18.34;58.33
46682;BME280;34101;53.430;-2.224;2023-05-11T10:07:25;101126.36;;;18.92;57.03
46682;BME280;34101;53.430;-2.224;2023-05-11T10:09:54;101126.19;;;18.15;58.58
46682;BME280;34101;53.430;-2.224;2023-05-11T10:12:24;101128.67;;;18.72;58.67
46682;BME280;34101;53.430;-2.224;2023-05-11T10:14:54;101125.86;;;19.05;57.46
46682;BME280;34101;53.430;-2.224;2023-05-11T10:17:22;101123.51;;;19.04;54.19
46682;BME280;34101;53.430;-2.224;2023-05-11T10:19:51;101122.96;;;19.14;55.34
46682;BME280;34101;53.430;-2.224;2023-05-11T10:22:21;101126.35;;;18.69;55.92
46682;BME280;34101;53.430;-2.224;2023-05-11T10:24:50;101129.21;;;18.76;56.47
46682;BME280;34101;53.430;-2.224;2023-05-11T10:27:20;101130.08;;;18.54;56.39
46682;BME280;34101;53.430;-2.224;2023-05-11T10:29:49;101125.51;;;18.00;55.07
46682;BME280;34101;53.430;-2.224;2023-05-11T10:32:18;101129.11;;;18.04;57.77
46682;BME280;34101;53.430;-2.224;2023-05-11T10:34:46;101134.97;;;18.24;58.30
46682;BME280;34101;53.430;-2.224;2023-05-11T10:37:14;101136.62;;;17.76;58.46
46682;BME280;34101;53.430;-2.224;2023-05-11T10:39:44;101141.23;;;17.90;59.20
46682;BME280;34101;53.430;-2.224;2023-05-11T10:42:24;101139.52;;;17.99;59.03
46682;BME280;34101;53.430;-2.224;2023-05-11T10:45:10;101141.00;;;17.94;58.76
46682;BME280;34101;53.430;-2.224;2023-05-11T10:48:02;101144.41;;;17.48;60.12
46682;BME280;34101;53.430;-2.224;2023-05-11T10:50:46;101145.78;;;17.35;59.88
46682;BME280;34101;53.430;-2.224;2023-05-11T10:53:31;101144.60;;;17.44;61.01
46682;BME280;34101;53.430;-2.224;2023-05-11T10:56:15;101143.94;;;17.58;60.61
46682;BME280;34101;53.430;-2.224;2023-05-11T10:59:02;101144.06;;;17.31;60.30
46682;BME280;34101;53.430;-2.224;2023-05-11T11:01:37;101144.45;;;16.95;60.66
46682;BME280;34101;53.430;-2.224;2023-05-11T11:04:07;101140.56;;;16.64;61.12
46682;BME280;34101;53.430;-2.224;2023-05-11T11:06:36;101142.20;;;17.00;61.40
46682;BME280;34101;53.430;-2.224;2023-05-11T11:09:05;101140.17;;;17.08;61.73
46682;BME280;34101;53.430;-2.224;2023-05-11T11:11:34;101135.67;;;16.60;60.64
46682;BME280;34101;53.430;-2.224;2023-05-11T11:14:03;101136.87;;;16.97;60.54
46682;BME280;34101;53.430;-2.224;2023-05-11T11:16:31;101137.53;;;17.22;60.22
46682;BME280;34101;53.430;-2.224;2023-05-11T11:20:05;101139.29;;;17.21;61.27
46682;BME280;34101;53.430;-2.224;2023-05-11T11:22:47;101140.05;;;17.42;62.09
46682;BME280;34101;53.430;-2.224;2023-05-11T11:25:49;101141.43;;;17.64;59.98
46682;BME280;34101;53.430;-2.224;2023-05-11T11:28:17;101142.56;;;17.69;59.96
46682;BME280;34101;53.430;-2.224;2023-05-11T11:30:44;101141.50;;;17.65;59.09
46682;BME280;34101;53.430;-2.224;2023-05-11T11:33:44;101142.81;;;17.59;58.89
46682;BME280;34101;53.430;-2.224;2023-05-11T11:36:11;101143.79;;;17.78;57.39
46682;BME280;34101;53.430;-2.224;2023-05-11T11:38:56;101141.10;;;17.74;57.44
46682;BME280;34101;53.430;-2.224;2023-05-11T11:41:28;101140.78;;;17.93;56.47
46682;BME280;34101;53.430;-2.224;2023-05-11T11:43:56;101137.31;;;17.86;57.39
46682;BME280;34101;53.430;-2.224;2023-05-11T11:46:26;101134.63;;;17.93;55.11
46682;BME280;34101;53.430;-2.224;2023-05-11T11:49:06;101133.07;;;18.13;57.07
46682;BME280;34101;53.430;-2.224;2023-05-11T11:51:39;101131.45;;;18.15;53.51
46682;BME280;34101;53.430;-2.224;2023-05-11T11:54:06;101133.81;;;18.32;55.86
46682;BME280;34101;53.430;-2.224;2023-05-11T11:56:37;101137.51;;;18.50;53.94
46682;BME280;34101;53.430;-2.224;2023-05-11T11:59:04;101138.44;;;18.45;54.10
46682;BME280;34101;53.430;-2.224;2023-05-11T12:01:35;101139.52;;;18.75;52.33
46682;BME280;34101;53.430;-2.224;2023-05-11T12:05:11;101135.52;;;18.92;51.48
46682;BME280;34101;53.430;-2.224;2023-05-11T12:07:41;101135.53;;;19.13;49.52
46682;BME280;34101;53.430;-2.224;2023-05-11T12:10:09;101136.79;;;19.05;51.01
46682;BME280;34101;53.430;-2.224;2023-05-11T12:12:39;101141.02;;;18.94;49.77
46682;BME280;34101;53.430;-2.224;2023-05-11T12:15:07;101141.44;;;19.30;49.95
46682;BME280;34101;53.430;-2.224;2023-05-11T12:17:37;101142.73;;;19.69;47.59
46682;BME280;34101;53.430;-2.224;2023-05-11T12:20:15;101143.01;;;19.93;47.19
46682;BME280;34101;53.430;-2.224;2023-05-11T12:22:43;101142.24;;;20.20;46.90
46682;BME280;34101;53.430;-2.224;2023-05-11T12:25:11;101139.09;;;20.41;46.53
46682;BME280;34101;53.430;-2.224;2023-05-11T12:27:47;101138.97;;;20.57;46.03
46682;BME280;34101;53.430;-2.224;2023-05-11T12:30:19;101139.23;;;20.64;45.03
46682;BME280;34101;53.430;-2.224;2023-05-11T12:32:46;101141.41;;;20.50;43.04
46682;BME280;34101;53.430;-2.224;2023-05-11T12:35:14;101144.93;;;20.36;43.29
46682;BME280;34101;53.430;-2.224;2023-05-11T12:37:47;101145.50;;;20.08;44.61
46682;BME280;34101;53.430;-2.224;2023-05-11T12:40:14;101148.11;;;19.68;45.78
46682;BME280;34101;53.430;-2.224;2023-05-11T12:42:49;101145.68;;;19.75;46.09
46682;BME280;34101;53.430;-2.224;2023-05-11T12:45:17;101146.29;;;19.60;45.27
46682;BME280;34101;53.430;-2.224;2023-05-11T12:47:45;101151.09;;;19.73;45.43
46682;BME280;34101;53.430;-2.224;2023-05-11T12:50:13;101150.59;;;19.72;44.61
46682;BME280;34101;53.430;-2.224;2023-05-11T12:52:40;101155.47;;;19.78;44.64
46682;BME280;34101;53.430;-2.224;2023-05-11T12:55:08;101159.10;;;19.84;43.98